createdAt,value
2018-08-09T00:00:34.070Z,20.35
2018-08-09T00:05:37.565Z,20.26
2018-08-09T00:10:41.217Z,20.21
2018-08-09T00:15:44.705Z,20.09
2018-08-09T00:20:48.249Z,20.09
2018-08-09T00:25:52.311Z,19.92
2018-08-09T00:30:55.894Z,19.79
2018-08-09T00:35:59.550Z,19.48
2018-08-09T00:41:03.274Z,18.83
2018-08-09T00:46:07.415Z,18.70
2018-08-09T00:51:11.048Z,19.05
2018-08-09T00:56:14.651Z,19.08
2018-08-09T01:01:18.201Z,18.43
2018-08-09T01:06:23.342Z,18.18
2018-08-09T01:11:27.161Z,18.63
2018-08-09T01:16:30.670Z,18.85
2018-08-09T01:21:34.441Z,18.91
2018-08-09T01:26:38.244Z,18.92
2018-08-09T01:31:41.990Z,18.92
2018-08-09T01:36:46.026Z,18.92
2018-08-09T01:42:01.174Z,18.92
2018-08-09T01:47:06.234Z,18.83
2018-08-09T01:52:09.819Z,18.71
2018-08-09T01:57:13.398Z,18.17
2018-08-09T02:02:16.990Z,17.67
2018-08-09T02:07:20.858Z,17.92
2018-08-09T02:12:24.459Z,18.06
2018-08-09T02:17:27.985Z,17.93
2018-08-09T02:22:31.571Z,17.61
2018-08-09T02:27:35.132Z,17.90
2018-08-09T02:32:38.682Z,18.21
2018-08-09T02:37:42.455Z,18.12
2018-08-09T02:42:46.189Z,18.03
2018-08-09T02:47:50.299Z,18.08
2018-08-09T02:52:53.959Z,17.56
2018-08-09T02:57:57.533Z,17.58
2018-08-09T03:03:01.104Z,17.73
2018-08-09T03:08:04.650Z,17.83
2018-08-09T03:13:08.267Z,17.31
2018-08-09T03:18:11.907Z,17.12
2018-08-09T03:23:15.550Z,17.17
2018-08-09T03:28:19.108Z,17.43
2018-08-09T03:33:22.629Z,17.51
2018-08-09T03:38:26.429Z,17.53
2018-08-09T03:43:30.276Z,17.25
2018-08-09T03:48:33.767Z,17.26
2018-08-09T03:53:41.097Z,17.34
2018-08-09T03:58:44.640Z,17.44
2018-08-09T04:03:48.762Z,17.38
2018-08-09T04:08:52.257Z,17.16
2018-08-09T04:13:56.230Z,17.05
2018-08-09T04:19:00.372Z,17.01
2018-08-09T04:24:03.956Z,17.27
2018-08-09T04:29:07.465Z,17.45
2018-08-09T04:34:11.081Z,17.53
2018-08-09T04:39:14.586Z,17.59
2018-08-09T04:44:18.762Z,17.87
2018-08-09T04:49:22.252Z,18.27
2018-08-09T04:54:25.838Z,18.75
2018-08-09T04:59:40.672Z,19.09
2018-08-09T05:04:44.394Z,18.99
2018-08-09T05:09:48.139Z,18.52
2018-08-09T05:14:51.757Z,18.65
2018-08-09T05:19:55.313Z,18.62
2018-08-09T05:25:00.030Z,18.98
2018-08-09T05:30:03.630Z,19.60
2018-08-09T05:35:07.259Z,20.08
2018-08-09T05:40:11.403Z,19.85
2018-08-09T05:45:15.196Z,19.47
2018-08-09T05:50:18.790Z,19.70
2018-08-09T05:55:22.372Z,20.29
2018-08-09T06:00:28.490Z,20.60
2018-08-09T06:05:32.102Z,20.24
2018-08-09T06:10:35.790Z,20.20
2018-08-09T06:15:39.359Z,20.77
2018-08-09T06:20:42.883Z,21.44
2018-08-09T06:25:46.477Z,21.27
2018-08-09T06:30:50.197Z,21.15
2018-08-09T06:35:53.816Z,21.03
2018-08-09T06:40:58.294Z,21.17
2018-08-09T06:46:01.900Z,21.50
2018-08-09T06:51:05.465Z,21.69
2018-08-09T06:56:09.197Z,21.51
2018-08-09T07:01:12.864Z,21.75
2018-08-09T07:06:22.837Z,21.69
2018-08-09T07:11:26.339Z,21.45
2018-08-09T07:16:30.274Z,21.58
2018-08-09T07:21:34.209Z,21.22
2018-08-09T07:26:37.918Z,21.22
2018-08-09T07:31:41.598Z,21.22
2018-08-09T07:36:45.973Z,21.28
2018-08-09T07:41:49.509Z,21.27
2018-08-09T07:46:53.102Z,21.37
2018-08-09T07:51:56.719Z,21.46
2018-08-09T07:57:00.404Z,21.57
2018-08-09T08:02:03.869Z,21.97
2018-08-09T08:07:07.636Z,22.45
2018-08-09T08:12:11.176Z,22.14
2018-08-09T08:17:14.749Z,22.35
2018-08-09T08:22:18.277Z,22.08
2018-08-09T08:27:22.007Z,21.78
2018-08-09T08:32:25.557Z,22.17
2018-08-09T08:37:29.073Z,22.29
2018-08-09T08:42:32.624Z,22.24
2018-08-09T08:47:36.182Z,22.24
2018-08-09T08:52:40.575Z,22.13
2018-08-09T08:57:44.196Z,22.15
2018-08-09T09:02:47.694Z,22.19
2018-08-09T09:07:51.366Z,21.98
2018-08-09T09:12:54.883Z,21.86
2018-08-09T09:17:58.465Z,22.16
2018-08-09T09:23:02.173Z,22.11
2018-08-09T09:28:05.809Z,22.53
2018-08-09T09:33:09.312Z,22.23
2018-08-09T09:38:13.059Z,22.35
2018-08-09T09:43:16.640Z,22.11
2018-08-09T09:48:20.343Z,22.22
2018-08-09T09:53:23.958Z,22.21
2018-08-09T09:58:27.562Z,22.21
2018-08-09T10:03:31.430Z,22.46
2018-08-09T10:08:35.318Z,22.62
2018-08-09T10:13:39.371Z,22.71
2018-08-09T10:18:43.053Z,23.17
2018-08-09T10:23:47.503Z,23.17
2018-08-09T10:28:51.158Z,23.56
2018-08-09T10:33:54.851Z,23.52
2018-08-09T10:38:58.431Z,23.64
2018-08-09T10:44:02.923Z,24.34
2018-08-09T10:49:06.504Z,24.41
2018-08-09T10:54:10.098Z,24.42
2018-08-09T10:59:14.621Z,24.37
2018-08-09T11:04:18.302Z,24.75
2018-08-09T11:09:21.908Z,25.07
2018-08-09T11:14:25.574Z,25.42
2018-08-09T11:19:29.142Z,25.64
2018-08-09T11:24:32.713Z,26.06
2018-08-09T11:29:36.320Z,26.69
2018-08-09T11:34:40.028Z,27.34
2018-08-09T11:39:43.911Z,27.74
2018-08-09T11:44:48.158Z,27.67
2018-08-09T11:49:54.457Z,28.00
2018-08-09T11:54:57.993Z,28.52
2018-08-09T12:00:01.584Z,28.67
2018-08-09T12:05:05.280Z,28.70
2018-08-09T12:10:08.998Z,28.95
2018-08-09T12:15:13.573Z,28.60
2018-08-09T12:20:20.138Z,28.73
2018-08-09T12:25:23.774Z,29.06
2018-08-09T12:30:30.442Z,29.43
2018-08-09T12:35:34.145Z,29.66
2018-08-09T12:40:37.716Z,29.89
2018-08-09T12:45:41.689Z,30.09
2018-08-09T12:50:45.361Z,30.43
2018-08-09T12:55:48.930Z,30.39
2018-08-09T13:00:52.541Z,30.54
2018-08-09T13:05:56.327Z,30.43
2018-08-09T13:11:00.734Z,30.52
2018-08-09T13:16:04.329Z,30.43
2018-08-09T13:21:08.805Z,30.65
2018-08-09T13:26:13.634Z,30.77
2018-08-09T13:31:17.425Z,30.67
2018-08-09T13:36:21.104Z,30.61
2018-08-09T13:41:24.804Z,30.74
2018-08-09T13:46:28.505Z,30.75
2018-08-09T13:51:32.162Z,30.72
2018-08-09T13:56:36.030Z,30.65
2018-08-09T14:01:39.660Z,30.53
2018-08-09T14:06:43.270Z,30.39
2018-08-09T14:11:46.927Z,30.20
2018-08-09T14:16:50.938Z,30.12
2018-08-09T14:21:54.698Z,30.21
2018-08-09T14:27:10.743Z,28.97
2018-08-09T14:32:14.604Z,26.60
2018-08-09T14:37:18.127Z,24.87
2018-08-09T14:42:21.769Z,24.01
2018-08-09T14:47:25.382Z,23.13
2018-08-09T14:52:29.015Z,22.42
2018-08-09T14:57:33.207Z,22.04
2018-08-09T15:02:36.868Z,21.88
2018-08-09T15:07:41.031Z,21.76
2018-08-09T15:12:44.674Z,21.65
2018-08-09T15:17:49.456Z,21.77
2018-08-09T15:22:53.110Z,21.66
2018-08-09T15:27:56.670Z,21.59
2018-08-09T15:33:00.256Z,21.69
2018-08-09T15:38:03.961Z,21.74
2018-08-09T15:43:08.069Z,21.46
2018-08-09T15:48:12.451Z,21.61
2018-08-09T15:53:15.992Z,21.50
2018-08-09T15:58:19.512Z,21.34
2018-08-09T16:03:23.192Z,21.65
2018-08-09T16:08:26.919Z,21.93
2018-08-09T16:13:30.724Z,21.96
2018-08-09T16:18:34.939Z,22.61
2018-08-09T16:23:38.596Z,22.69
2018-08-09T16:28:42.996Z,22.36
2018-08-09T16:33:46.841Z,22.65
2018-08-09T16:38:50.764Z,22.71
2018-08-09T16:43:54.453Z,22.99
2018-08-09T16:48:58.044Z,22.75
2018-08-09T16:54:01.612Z,22.91
2018-08-09T16:59:05.239Z,23.05
2018-08-09T17:04:09.028Z,23.66
2018-08-09T17:09:14.651Z,24.37
2018-08-09T17:14:19.312Z,24.55
2018-08-09T17:19:22.986Z,24.57
2018-08-09T17:24:26.567Z,24.27
2018-08-09T17:29:30.217Z,24.18
2018-08-09T17:34:34.126Z,23.72
2018-08-09T17:39:37.940Z,23.56
2018-08-09T17:44:41.778Z,23.65
2018-08-09T17:49:45.969Z,23.80
2018-08-09T17:54:49.502Z,23.98
2018-08-09T17:59:53.249Z,24.14
2018-08-09T18:04:57.314Z,24.14
2018-08-09T18:10:00.919Z,24.10
2018-08-09T18:15:05.181Z,23.76
2018-08-09T18:20:11.104Z,23.81
2018-08-09T18:25:15.547Z,23.92
2018-08-09T18:30:19.973Z,23.83
2018-08-09T18:35:23.531Z,23.70
2018-08-09T18:40:34.967Z,23.73
2018-08-09T18:45:39.976Z,23.58
2018-08-09T18:50:43.580Z,23.44
2018-08-09T18:55:47.118Z,23.28
2018-08-09T19:00:50.712Z,23.05
2018-08-09T19:05:54.435Z,23.08
2018-08-09T19:10:58.054Z,22.86
2018-08-09T19:16:01.696Z,22.62
2018-08-09T19:21:05.360Z,22.62
2018-08-09T19:26:09.011Z,22.66
2018-08-09T19:31:13.529Z,22.71
2018-08-09T19:36:17.166Z,22.72
2018-08-09T19:41:20.697Z,22.61
2018-08-09T19:46:24.602Z,22.70
2018-08-09T19:51:28.596Z,22.79
2018-08-09T19:56:32.252Z,22.79
2018-08-09T20:01:35.959Z,22.62
2018-08-09T20:06:39.576Z,22.39
2018-08-09T20:11:43.180Z,22.18
2018-08-09T20:16:46.819Z,21.99
2018-08-09T20:21:50.491Z,21.89
2018-08-09T20:26:55.102Z,21.74
2018-08-09T20:31:59.118Z,21.57
2018-08-09T20:37:03.288Z,21.49
2018-08-09T20:42:07.115Z,21.38
2018-08-09T20:47:10.730Z,21.32
2018-08-09T20:52:14.364Z,21.26
2018-08-09T20:57:18.520Z,21.21
2018-08-09T21:02:22.200Z,21.14
2018-08-09T21:07:25.885Z,21.04
2018-08-09T21:12:29.538Z,21.00
2018-08-09T21:17:45.117Z,21.03
2018-08-09T21:22:49.588Z,20.99
2018-08-09T21:27:53.808Z,20.92
2018-08-09T21:32:57.481Z,20.88
2018-08-09T21:38:01.284Z,20.90
2018-08-09T21:43:05.466Z,20.83
2018-08-09T21:48:10.190Z,20.85
2018-08-09T21:53:14.114Z,20.82
2018-08-09T21:58:18.096Z,20.81
2018-08-09T22:03:26.154Z,20.78
2018-08-09T22:08:35.150Z,20.72
2018-08-09T22:13:44.280Z,20.66
2018-08-09T22:18:53.228Z,20.60
2018-08-09T22:23:56.806Z,20.48
2018-08-09T22:29:00.921Z,20.48
2018-08-09T22:34:04.497Z,20.36
2018-08-09T22:39:09.470Z,20.25
2018-08-09T22:44:13.080Z,20.20
2018-08-09T22:49:16.743Z,20.16
2018-08-09T22:54:24.638Z,19.94
2018-08-09T22:59:28.253Z,19.93
2018-08-09T23:04:33.132Z,19.84
2018-08-09T23:09:36.793Z,19.60
2018-08-09T23:14:40.729Z,19.52
2018-08-09T23:19:44.341Z,19.40
2018-08-09T23:24:49.065Z,19.34
2018-08-09T23:29:52.717Z,19.18
2018-08-09T23:34:56.356Z,19.08
2018-08-09T23:39:59.971Z,18.99
2018-08-09T23:45:03.774Z,18.93
2018-08-09T23:50:09.413Z,18.88
2018-08-09T23:55:15.599Z,18.72
